Latest Weather Observations for North Head

IDN60901

Issued at 7:41 am EST Wednesday 29 July 2015 (issued every 10 minutes, with the page automatically refreshed every 10 minutes)

About weather observations | Map of Sydney area stations | Latest observations for Sydney area | Other Formats
Station Details ID: 066197 Name: NORTH HEAD Lat: -33.82 Lon: 151.30 Height: 90.0 m
Data from the previous 72 hours. | See also: Recent months for locations in New South Wales
Date/Time
EST
Tmp

°C
App
Tmp
°C
Dew
Point
°C
Rel
Hum
%
Delta-T

°C
Wind Press
QNH
hPa
Press
MSL
hPa
Rain
since
9 am
mm
Dir
 
Spd
km/h
Gust
km/h
Spd
kts
Gust
kts
29/07:30am - - - - - W 13 19 7 10 - - -
29/07:00am - - - - - W 13 17 7 9 - - -
29/06:30am - - - - - W 15 19 8 10 - - -
29/06:00am - - - - - W 9 13 5 7 - - -
29/05:30am - - - - - W 9 11 5 6 - - -
29/05:00am - - - - - W 11 15 6 8 - - -
29/04:30am - - - - - W 11 13 6 7 - - -
29/04:00am - - - - - W 9 13 5 7 - - -
29/03:30am - - - - - WSW 7 11 4 6 - - -
29/03:00am - - - - - W 13 17 7 9 - - -
29/02:30am - - - - - W 13 17 7 9 - - -
29/02:00am - - - - - W 13 20 7 11 - - -
29/01:30am - - - - - WNW 13 15 7 8 - - -
29/01:00am - - - - - WNW 11 15 6 8 - - -
29/12:30am - - - - - W 11 13 6 7 - - -
29/12:00am - - - - - W 11 15 6 8 - - -
 
Date/Time
EST
Tmp

°C
App
Tmp
°C
Dew
Point
°C
Rel
Hum
%
Delta-T

°C
Wind Press
QNH
hPa
Press
MSL
hPa
Rain
since
9 am
mm
Dir
 
Spd
km/h
Gust
km/h
Spd
kts
Gust
kts
28/11:30pm - - - - - W 15 19 8 10 - - -
28/11:00pm - - - - - W 13 19 7 10 - - -
28/10:30pm - - - - - SW 7 11 4 6 - - -
28/10:00pm - - - - - WSW 6 7 3 4 - - -
28/09:30pm - - - - - WSW 7 17 4 9 - - -
28/09:00pm - - - - - WSW 6 7 3 4 - - -
28/08:30pm - - - - - SW 6 9 3 5 - - -
28/08:00pm - - - - - SW 7 9 4 5 - - -
28/07:30pm - - - - - SSW 11 19 6 10 - - -
28/07:00pm - - - - - SSW 9 15 5 8 - - -
28/06:30pm - - - - - SSW 11 17 6 9 - - -
28/06:00pm - - - - - SSW 11 19 6 10 - - -
28/05:30pm - - - - - SSW 13 19 7 10 - - -
28/05:00pm - - - - - S 11 19 6 10 - - -
28/04:30pm - - - - - S 15 22 8 12 - - -
28/04:00pm - - - - - S 17 28 9 15 - - -
28/03:30pm - - - - - S 19 30 10 16 - - -
28/03:00pm - - - - - S 19 28 10 15 - - -
28/02:30pm - - - - - S 20 32 11 17 - - -
28/02:00pm - - - - - S 19 33 10 18 - - -
28/01:30pm - - - - - S 15 24 8 13 - - -
28/01:00pm - - - - - WSW 9 15 5 8 - - -
28/12:30pm - - - - - W 11 17 6 9 - - -
28/12:00pm - - - - - W 13 20 7 11 - - -
28/11:30am - - - - - WSW 13 20 7 11 - - -
28/11:00am - - - - - W 17 24 9 13 - - -
28/10:30am - - - - - W 17 24 9 13 - - -
28/10:00am - - - - - W 19 30 10 16 - - -
28/09:30am - - - - - W 20 32 11 17 - - -
28/09:00am - - - - - W 20 30 11 16 - - -
28/08:30am - - - - - W 19 26 10 14 - - -
28/08:00am - - - - - W 19 26 10 14 - - -
28/07:30am - - - - - W 20 28 11 15 - - -
28/07:00am - - - - - W 19 26 10 14 - - -
28/06:30am - - - - - W 22 32 12 17 - - -
28/06:00am - - - - - W 19 28 10 15 - - -
28/05:30am - - - - - W 20 30 11 16 - - -
28/05:00am - - - - - W 20 30 11 16 - - -
28/04:30am - - - - - W 22 33 12 18 - - -
28/04:00am - - - - - W 22 33 12 18 - - -
28/03:30am - - - - - W 20 32 11 17 - - -
28/03:00am - - - - - W 20 32 11 17 - - -
28/02:30am - - - - - W 22 33 12 18 - - -
28/02:00am - - - - - W 24 33 13 18 - - -
28/01:30am - - - - - W 22 33 12 18 - - -
28/01:00am - - - - - W 22 30 12 16 - - -
28/12:30am - - - - - W 24 35 13 19 - - -
28/12:00am - - - - - W 22 33 12 18 - - -
 
Date/Time
EST
Tmp

°C
App
Tmp
°C
Dew
Point
°C
Rel
Hum
%
Delta-T

°C
Wind Press
QNH
hPa
Press
MSL
hPa
Rain
since
9 am
mm
Dir
 
Spd
km/h
Gust
km/h
Spd
kts
Gust
kts
27/11:30pm - - - - - W 22 35 12 19 - - -
27/11:00pm - - - - - W 22 35 12 19 - - -
27/10:30pm - - - - - W 20 35 11 19 - - -
27/10:00pm - - - - - W 20 30 11 16 - - -
27/09:30pm - - - - - W 20 32 11 17 - - -
27/09:00pm - - - - - W 20 33 11 18 - - -
27/08:30pm - - - - - W 22 33 12 18 - - -
27/08:00pm - - - - - W 20 33 11 18 - - -
27/07:30pm - - - - - WSW 28 41 15 22 - - -
27/07:00pm - - - - - WSW 26 39 14 21 - - -
27/06:30pm - - - - - W 17 24 9 13 - - -
27/06:00pm - - - - - W 17 28 9 15 - - -
27/05:30pm - - - - - WSW 17 26 9 14 - - -
27/05:00pm - - - - - W 19 28 10 15 - - -
27/04:30pm - - - - - W 19 28 10 15 - - -
27/04:00pm - - - - - W 17 32 9 17 - - -
27/03:30pm - - - - - WSW 17 28 9 15 - - -
27/03:00pm - - - - - WSW 15 24 8 13 - - -
27/02:30pm - - - - - WSW 17 28 9 15 - - -
27/02:00pm - - - - - WSW 20 33 11 18 - - -
27/01:30pm - - - - - W 22 39 12 21 - - -
27/01:00pm - - - - - W 26 37 14 20 - - -
27/12:30pm - - - - - WSW 24 41 13 22 - - -
27/12:00pm - - - - - WSW 30 46 16 25 - - -
27/11:45am - - - - - WSW 30 48 16 26 - - -
27/11:30am - - - - - W 24 41 13 22 - - -
27/11:00am - - - - - W 19 33 10 18 - - -
27/10:30am - - - - - W 22 39 12 21 - - -
27/10:00am - - - - - W 22 39 12 21 - - -
27/09:30am - - - - - W 17 28 9 15 - - -
27/09:00am - - - - - W 11 15 6 8 - - -
27/08:30am - - - - - W 13 20 7 11 - - -
27/08:00am - - - - - W 17 24 9 13 - - -
27/07:30am - - - - - WNW 15 22 8 12 - - -
27/07:00am - - - - - W 11 20 6 11 - - -
27/06:30am - - - - - W 19 26 10 14 - - -
27/06:00am - - - - - WNW 17 28 9 15 - - -
27/05:30am - - - - - W 15 22 8 12 - - -
27/05:00am - - - - - WNW 19 26 10 14 - - -
27/04:30am - - - - - W 24 35 13 19 - - -
27/04:00am - - - - - WNW 19 28 10 15 - - -
27/03:30am - - - - - W 22 35 12 19 - - -
27/03:00am - - - - - WNW 22 37 12 20 - - -
27/02:30am - - - - - W 24 35 13 19 - - -
27/02:00am - - - - - W 24 37 13 20 - - -
27/01:30am - - - - - W 22 35 12 19 - - -
27/01:00am - - - - - W 24 39 13 21 - - -
27/12:30am - - - - - W 17 24 9 13 - - -
27/12:00am - - - - - WSW 20 33 11 18 - - -
 
Date/Time
EST
Tmp

°C
App
Tmp
°C
Dew
Point
°C
Rel
Hum
%
Delta-T

°C
Wind Press
QNH
hPa
Press
MSL
hPa
Rain
since
9 am
mm
Dir
 
Spd
km/h
Gust
km/h
Spd
kts
Gust
kts
26/11:30pm - - - - - WSW 24 39 13 21 - - -
26/11:00pm - - - - - WSW 22 37 12 20 - - -
26/10:30pm - - - - - WSW 20 37 11 20 - - -
26/10:00pm - - - - - WSW 22 37 12 20 - - -
26/09:30pm - - - - - WSW 17 28 9 15 - - -
26/09:00pm - - - - - WSW 13 22 7 12 - - -
26/08:30pm - - - - - W 24 37 13 20 - - -
26/08:16pm - - - - - W 28 46 15 25 - - -
26/08:00pm - - - - - W 26 43 14 23 - - -
26/07:38pm - - - - - W 28 48 15 26 - - -
26/07:30pm - - - - - W 28 43 15 23 - - -
26/07:10pm - - - - - W 28 48 15 26 - - -
26/07:00pm - - - - - W 28 43 15 23 - - -
26/06:30pm - - - - - WNW 37 57 20 31 - - -
26/06:00pm - - - - - WNW 33 52 18 28 - - -
26/05:41pm - - - - - WNW 30 48 16 26 - - -
26/05:30pm - - - - - WNW 26 39 14 21 - - -
26/05:00pm - - - - - WNW 24 39 13 21 - - -
26/04:30pm - - - - - WNW 32 52 17 28 - - -
26/04:15pm - - - - - WNW 30 54 16 29 - - -
26/04:00pm - - - - - WNW 32 46 17 25 - - -
26/03:30pm - - - - - WNW 32 44 17 24 - - -
26/03:00pm - - - - - WNW 32 61 17 33 - - -
26/02:44pm - - - - - WNW 32 52 17 28 - - -
26/02:30pm - - - - - WNW 26 46 14 25 - - -
26/02:03pm - - - - - WNW 28 46 15 25 - - -
26/02:00pm - - - - - WNW 30 46 16 25 - - -
26/01:31pm - - - - - WNW 28 48 15 26 - - -
26/01:30pm - - - - - WNW 26 48 14 26 - - -
26/01:04pm - - - - - WNW 28 50 15 27 - - -
26/01:00pm - - - - - WNW 22 50 12 27 - - -
26/12:30pm - - - - - NW 22 33 12 18 - - -
26/12:00pm - - - - - NW 15 24 8 13 - - -
26/11:30am - - - - - NNW 11 19 6 10 - - -
26/11:00am - - - - - NNW 11 20 6 11 - - -
26/10:30am - - - - - NNW 11 20 6 11 - - -
26/10:00am - - - - - NNW 17 28 9 15 - - -
26/09:30am - - - - - NNW 15 24 8 13 - - -
26/09:00am - - - - - NNW 13 20 7 11 - - -
26/08:30am - - - - - NNW 15 22 8 12 - - -
26/08:00am - - - - - NNW 15 22 8 12 - - -

Latest Capital City Observations: Canberra | Sydney | Melbourne | Brisbane | Adelaide | Perth | Hobart | Darwin

Other Formats:

Comma delimited format used in spreadsheet applications
http://www.bom.gov.au/fwo/IDN60901/IDN60901.95768.axf

JavaScript Object Notation format (JSON) in row-major order
http://www.bom.gov.au/fwo/IDN60901/IDN60901.95768.json